Riverdance — C6CG3 — position and weather

sailwx.info

Track history (hours):
 
Tides and Currents Weather Stations Pressure Air Temp Water Temp Dewpoint Dewpoint Depression Visibility Wind Speed Wind Dir Waves Ship Positions

Riverdance

Operator: Crescent Marine Services Ltd

Last reported at 2020-Jul-07 11:06 UTC. Time now 2020-Jul-07 18:44 UTC.
Position N 53°58' E 008°37'.

Length 72 m; draft 5.8 m.

Type: Other ship. MMSI: 311000463.

Date/timePositionNaut miles runAvg speedWind from/ knotsBaromVisibWave heightAir tempDewpointWater temp
2020-Jul-07 11:06N 53°58' E 008°37'6 0.6
2020-Jul-07 00:00N 53°52' E 008°43'0 0.0
2020-Jul-06 22:27N 53°52' E 008°43'0 0.0
2020-Jul-06 11:54N 53°52' E 008°43'0 0.0
2020-Jul-06 09:54N 53°52' E 008°43'0 0.0
2020-Jul-06 09:30N 53°52' E 008°43'0 0.0
2020-Jul-06 08:27N 53°52' E 008°43'0 0.0
2020-Jul-06 07:45N 53°52' E 008°43'0 0.0
2020-Jul-06 04:27N 53°52' E 008°43'0 0.0
2020-Jul-06 03:00N 53°52' E 008°43'0 0.0
2020-Jul-06 01:48N 53°52' E 008°43'0 0.0
2020-Jul-06 01:15N 53°52' E 008°43'0 0.0
2020-Jul-05 15:09N 53°52' E 008°43'0 0.0
2020-Jul-05 12:30N 53°52' E 008°43'0 0.0
2020-Jul-05 10:30N 53°52' E 008°43'  
2020-Jun-30 23:47N 53°53' E 007°46'22 9.8
2020-Jun-30 21:30N 53°43' E 008°19'15 5.0
2020-Jun-30 18:29N 53°31' E 008°35'0 0.0
2020-Jun-30 17:59N 53°31' E 008°35'0 0.0
2020-Jun-30 17:29N 53°31' E 008°35'0 0.0
2020-Jun-30 16:29N 53°31' E 008°35'0 0.0
2020-Jun-30 15:29N 53°31' E 008°35'0 0.0
2020-Jun-30 14:29N 53°31' E 008°35'0 0.0
2020-Jun-30 13:29N 53°31' E 008°35'0 0.0
2020-Jun-30 11:59N 53°31' E 008°35'0 0.0
2020-Jun-30 07:29N 53°31' E 008°35'0 0.0
2020-Jun-30 06:29N 53°31' E 008°35'0 0.0
2020-Jun-30 03:29N 53°31' E 008°35'0 0.0
2020-Jun-30 02:29N 53°31' E 008°35'0 0.0
2020-Jun-30 00:29N 53°31' E 008°35'0 0.0
2020-Jun-29 22:59N 53°31' E 008°35'0 0.0
2020-Jun-29 22:29N 53°31' E 008°35'0 0.0
2020-Jun-29 21:29N 53°31' E 008°35'0 0.0
2020-Jun-29 16:29N 53°31' E 008°35'0 0.0
2020-Jun-29 15:59N 53°31' E 008°35'0 0.0
2020-Jun-29 13:59N 53°31' E 008°35'0 0.0
2020-Jun-29 13:29N 53°31' E 008°35'0 0.0
2020-Jun-29 06:59N 53°31' E 008°35'0 0.0
2020-Jun-29 05:29N 53°31' E 008°35'0 0.0
2020-Jun-29 04:29N 53°31' E 008°35'0 0.0
2020-Jun-29 00:29N 53°31' E 008°35'0 0.0
2020-Jun-28 23:29N 53°31' E 008°35'0 0.0
2020-Jun-28 22:29N 53°31' E 008°35'0 0.0
2020-Jun-28 21:59N 53°31' E 008°35'0 0.0
2020-Jun-28 21:29N 53°31' E 008°35'0 0.0
2020-Jun-28 18:29N 53°31' E 008°35'0 0.0
2020-Jun-28 14:29N 53°31' E 008°35'0 0.0
2020-Jun-28 13:26N 53°31' E 008°35'0 0.0
2020-Jun-28 11:59N 53°31' E 008°35'0 0.0
2020-Jun-28 07:29N 53°31' E 008°35'0 0.0
2020-Jun-28 04:59N 53°31' E 008°35'0 0.0
2020-Jun-28 02:29N 53°31' E 008°35'0 0.0
2020-Jun-28 01:29N 53°31' E 008°35'0 0.0
2020-Jun-27 22:59N 53°31' E 008°35'0 0.0
2020-Jun-27 22:29N 53°31' E 008°35'0 0.0
2020-Jun-27 19:29N 53°31' E 008°35'0 0.0
2020-Jun-27 18:59N 53°31' E 008°35'0 0.0
2020-Jun-27 16:29N 53°31' E 008°35'0 0.0
2020-Jun-27 13:59N 53°31' E 008°35'0 0.4
2020-Jun-27 13:30N 53°31' E 008°35'  
Track history (hours):
 
Tides and Currents Weather Stations Pressure Air Temp Water Temp Dewpoint Dewpoint Depression Visibility Wind Speed Wind Dir Waves Ship Positions

Riverdance

Operator: Crescent Marine Services Ltd

Last reported at 2020-Jul-07 11:06 UTC. Time now 2020-Jul-07 18:44 UTC.
Position N 53°58' E 008°37'.

Length 72 m; draft 5.8 m.

Type: Other ship. MMSI: 311000463.

Date/timePositionNaut miles runAvg speedWind from/ knotsBaromVisibWave heightAir tempDewpointWater temp
2020-Jul-07 11:06N 53°58' E 008°37'6 0.6
2020-Jul-07 00:00N 53°52' E 008°43'0 0.0
2020-Jul-06 22:27N 53°52' E 008°43'0 0.0
2020-Jul-06 11:54N 53°52' E 008°43'0 0.0
2020-Jul-06 09:54N 53°52' E 008°43'0 0.0
2020-Jul-06 09:30N 53°52' E 008°43'0 0.0
2020-Jul-06 08:27N 53°52' E 008°43'0 0.0
2020-Jul-06 07:45N 53°52' E 008°43'0 0.0
2020-Jul-06 04:27N 53°52' E 008°43'0 0.0
2020-Jul-06 03:00N 53°52' E 008°43'0 0.0
2020-Jul-06 01:48N 53°52' E 008°43'0 0.0
2020-Jul-06 01:15N 53°52' E 008°43'0 0.0
2020-Jul-05 15:09N 53°52' E 008°43'0 0.0
2020-Jul-05 12:30N 53°52' E 008°43'0 0.0
2020-Jul-05 10:30N 53°52' E 008°43'  
2020-Jun-30 23:47N 53°53' E 007°46'22 9.8
2020-Jun-30 21:30N 53°43' E 008°19'15 5.0
2020-Jun-30 18:29N 53°31' E 008°35'0 0.0
2020-Jun-30 17:59N 53°31' E 008°35'0 0.0
2020-Jun-30 17:29N 53°31' E 008°35'0 0.0
2020-Jun-30 16:29N 53°31' E 008°35'0 0.0
2020-Jun-30 15:29N 53°31' E 008°35'0 0.0
2020-Jun-30 14:29N 53°31' E 008°35'0 0.0
2020-Jun-30 13:29N 53°31' E 008°35'0 0.0
2020-Jun-30 11:59N 53°31' E 008°35'0 0.0
2020-Jun-30 07:29N 53°31' E 008°35'0 0.0
2020-Jun-30 06:29N 53°31' E 008°35'0 0.0
2020-Jun-30 03:29N 53°31' E 008°35'0 0.0
2020-Jun-30 02:29N 53°31' E 008°35'0 0.0
2020-Jun-30 00:29N 53°31' E 008°35'0 0.0
2020-Jun-29 22:59N 53°31' E 008°35'0 0.0
2020-Jun-29 22:29N 53°31' E 008°35'0 0.0
2020-Jun-29 21:29N 53°31' E 008°35'0 0.0
2020-Jun-29 16:29N 53°31' E 008°35'0 0.0
2020-Jun-29 15:59N 53°31' E 008°35'0 0.0
2020-Jun-29 13:59N 53°31' E 008°35'0 0.0
2020-Jun-29 13:29N 53°31' E 008°35'0 0.0
2020-Jun-29 06:59N 53°31' E 008°35'0 0.0
2020-Jun-29 05:29N 53°31' E 008°35'0 0.0
2020-Jun-29 04:29N 53°31' E 008°35'0 0.0
2020-Jun-29 00:29N 53°31' E 008°35'0 0.0
2020-Jun-28 23:29N 53°31' E 008°35'0 0.0
2020-Jun-28 22:29N 53°31' E 008°35'0 0.0
2020-Jun-28 21:59N 53°31' E 008°35'0 0.0
2020-Jun-28 21:29N 53°31' E 008°35'0 0.0
2020-Jun-28 18:29N 53°31' E 008°35'0 0.0
2020-Jun-28 14:29N 53°31' E 008°35'0 0.0
2020-Jun-28 13:26N 53°31' E 008°35'0 0.0
2020-Jun-28 11:59N 53°31' E 008°35'0 0.0
2020-Jun-28 07:29N 53°31' E 008°35'0 0.0
2020-Jun-28 04:59N 53°31' E 008°35'0 0.0
2020-Jun-28 02:29N 53°31' E 008°35'0 0.0
2020-Jun-28 01:29N 53°31' E 008°35'0 0.0
2020-Jun-27 22:59N 53°31' E 008°35'0 0.0
2020-Jun-27 22:29N 53°31' E 008°35'0 0.0
2020-Jun-27 19:29N 53°31' E 008°35'0 0.0
2020-Jun-27 18:59N 53°31' E 008°35'0 0.0
2020-Jun-27 16:29N 53°31' E 008°35'0 0.0
2020-Jun-27 13:59N 53°31' E 008°35'0 0.4
2020-Jun-27 13:30N 53°31' E 008°35'  

Dump ship's entire track history